Time;durP1;ratioP1;P1;durP2;ratioP2;P2;SDS_P1;SDS_P2;PMS_P1;PMS_P2;Temp;Humidity;BMP_temperature;BMP_pressure;BME280_temperature;BME280_humidity;BME280_pressure;Samples;Min_cycle;Max_cycle;Signal;HPM_P1;HPM_P2
2023/12/28 00:00:50;;;;;;;3.10;1.98;;;10.80;99.90;;;;;;6168821;23;20024;-36
2023/12/28 00:03:15;;;;;;;2.20;1.98;;;10.80;99.90;;;;;;6168747;23;20370;-45
2023/12/28 00:05:41;;;;;;;3.05;2.40;;;10.80;99.90;;;;;;6169192;23;20110;-36
2023/12/28 00:08:06;;;;;;;3.15;1.80;;;10.80;99.90;;;;;;6168631;23;20112;-36
2023/12/28 00:10:32;;;;;;;4.13;2.03;;;10.80;99.90;;;;;;6168598;23;20011;-35
2023/12/28 00:12:58;;;;;;;2.40;2.15;;;10.80;99.90;;;;;;6168947;23;20011;-35
2023/12/28 00:15:23;;;;;;;2.28;1.98;;;10.80;99.90;;;;;;6169005;23;20091;-35
2023/12/28 00:17:49;;;;;;;2.63;1.90;;;10.80;99.90;;;;;;6169753;23;20382;-36
2023/12/28 00:20:17;;;;;;;3.88;2.50;;;10.80;99.90;;;;;;6168774;23;20013;-36
2023/12/28 00:22:43;;;;;;;3.22;2.40;;;10.80;99.90;;;;;;6167771;23;20116;-35
2023/12/28 00:25:08;;;;;;;2.53;2.28;;;10.80;99.90;;;;;;6167842;23;20088;-38
2023/12/28 00:27:35;;;;;;;2.05;1.80;;;10.80;99.90;;;;;;6169148;23;20005;-35
2023/12/28 00:30:01;;;;;;;3.03;2.20;;;10.80;99.90;;;;;;6167992;23;20280;-35
2023/12/28 00:32:26;;;;;;;1.90;1.70;;;10.80;99.90;;;;;;6168584;23;20005;-36
2023/12/28 00:34:52;;;;;;;3.05;2.30;;;10.80;99.90;;;;;;6169796;23;20001;-36
2023/12/28 00:37:17;;;;;;;2.92;2.58;;;10.80;99.90;;;;;;6167753;23;20005;-35
2023/12/28 00:39:44;;;;;;;2.75;1.92;;;10.80;99.90;;;;;;6168836;23;20000;-36
2023/12/28 00:42:09;;;;;;;3.22;2.28;;;10.80;99.90;;;;;;6168272;23;20058;-36
2023/12/28 00:44:38;;;;;;;2.60;1.90;;;10.80;99.90;;;;;;6168488;23;20009;-35
2023/12/28 00:47:04;;;;;;;2.60;1.95;;;10.80;99.90;;;;;;6168059;23;20013;-35
2023/12/28 00:49:30;;;;;;;2.55;2.30;;;10.80;99.90;;;;;;6168706;23;20865;-35
2023/12/28 00:51:55;;;;;;;3.08;2.00;;;10.80;99.90;;;;;;6168463;23;20005;-35
2023/12/28 00:54:21;;;;;;;4.07;2.42;;;10.80;99.90;;;;;;6169255;23;20016;-35
2023/12/28 00:56:46;;;;;;;3.22;2.30;;;10.80;99.90;;;;;;6168963;23;20005;-36
2023/12/28 00:59:12;;;;;;;2.20;2.00;;;10.80;99.90;;;;;;6141331;23;20011;-35
2023/12/28 01:01:37;;;;;;;2.05;1.90;;;10.80;99.90;;;;;;6169355;23;20025;-36
2023/12/28 01:04:03;;;;;;;2.80;1.92;;;10.80;99.90;;;;;;6168491;23;20020;-35
2023/12/28 01:06:32;;;;;;;3.45;2.10;;;10.80;99.90;;;;;;6168105;23;20044;-35
2023/12/28 01:08:57;;;;;;;2.47;2.20;;;10.90;99.90;;;;;;6168551;23;20005;-36
2023/12/28 01:11:23;;;;;;;2.83;2.03;;;10.90;99.90;;;;;;6168548;23;20015;-36
2023/12/28 01:13:49;;;;;;;2.22;2.03;;;10.90;99.90;;;;;;6168514;23;20076;-36
2023/12/28 01:16:14;;;;;;;2.30;2.10;;;10.90;99.90;;;;;;6168165;23;20394;-35
2023/12/28 01:18:40;;;;;;;2.38;2.17;;;10.90;99.90;;;;;;6167849;23;20032;-40
2023/12/28 01:21:06;;;;;;;3.00;2.10;;;10.90;99.90;;;;;;6168696;23;20594;-36
2023/12/28 01:23:32;;;;;;;3.17;2.20;;;10.90;99.90;;;;;;6168819;23;20495;-36
2023/12/28 01:25:59;;;;;;;3.20;2.35;;;10.90;99.90;;;;;;6168103;23;20008;-35
2023/12/28 01:28:28;;;;;;;2.13;1.92;;;10.90;99.90;;;;;;6168193;23;20072;-35
2023/12/28 01:30:53;;;;;;;2.28;1.90;;;10.90;99.90;;;;;;6168970;23;20096;-36
2023/12/28 01:33:19;;;;;;;3.67;2.00;;;10.90;99.90;;;;;;6167462;23;20009;-36
2023/12/28 01:35:45;;;;;;;2.78;2.28;;;10.90;99.90;;;;;;6169002;23;20047;-36
2023/12/28 01:38:10;;;;;;;2.17;1.90;;;10.80;99.90;;;;;;6167260;23;20001;-35
2023/12/28 01:40:36;;;;;;;3.60;2.28;;;10.70;99.90;;;;;;6168228;23;20092;-36
2023/12/28 01:43:01;;;;;;;3.60;2.55;;;10.70;99.90;;;;;;6168369;23;20096;-35
2023/12/28 01:45:27;;;;;;;2.67;2.25;;;10.70;99.90;;;;;;6168513;23;20023;-36
2023/12/28 01:47:53;;;;;;;3.53;2.45;;;10.70;99.90;;;;;;6167717;23;20063;-36
2023/12/28 01:50:21;;;;;;;3.67;2.47;;;10.60;99.90;;;;;;6167558;23;20009;-36
2023/12/28 01:52:47;;;;;;;6.50;2.30;;;10.70;99.90;;;;;;6168230;23;20384;-35
2023/12/28 01:55:14;;;;;;;2.53;2.10;;;10.70;99.90;;;;;;6167353;23;20088;-35
2023/12/28 01:57:40;;;;;;;2.65;2.38;;;10.70;99.90;;;;;;6169263;23;20020;-35
2023/12/28 02:00:09;;;;;;;3.55;2.55;;;10.70;99.90;;;;;;6167748;23;20040;-44
2023/12/28 02:02:35;;;;;;;2.15;1.95;;;10.80;99.90;;;;;;6167798;23;20021;-35
2023/12/28 02:05:01;;;;;;;2.65;2.22;;;10.70;99.90;;;;;;6167774;23;20032;-34
2023/12/28 02:07:27;;;;;;;2.83;2.22;;;10.80;99.90;;;;;;6167986;23;20496;-35
2023/12/28 02:09:53;;;;;;;2.72;2.28;;;10.70;99.90;;;;;;6167442;23;20005;-36
2023/12/28 02:12:19;;;;;;;2.63;2.05;;;10.70;99.90;;;;;;6141534;23;20005;-35
2023/12/28 02:14:46;;;;;;;2.40;2.20;;;10.70;99.90;;;;;;6168580;23;20084;-36
2023/12/28 02:17:41;;;;;;;3.22;2.10;;;10.60;99.90;;;;;;6167998;23;20001;-36
2023/12/28 02:20:08;;;;;;;2.75;2.13;;;10.60;99.90;;;;;;6169145;23;20021;-36
2023/12/28 02:22:34;;;;;;;3.22;2.38;;;10.60;99.90;;;;;;6168390;23;20005;-42
2023/12/28 02:25:11;;;;;;;3.83;2.30;;;10.60;99.90;;;;;;6167437;23;20009;-36
2023/12/28 02:27:40;;;;;;;2.33;2.10;;;10.50;99.90;;;;;;6168021;23;20031;-35
2023/12/28 02:30:07;;;;;;;5.75;2.63;;;10.50;99.90;;;;;;6166061;23;20030;-35
2023/12/28 02:32:55;;;;;;;3.45;2.25;;;10.50;99.90;;;;;;6167087;23;20079;-36
2023/12/28 02:35:35;;;;;;;3.17;2.47;;;10.50;99.90;;;;;;6166951;23;20088;-35
2023/12/28 02:38:13;;;;;;;3.53;2.20;;;10.50;99.90;;;;;;6167062;23;20013;-35
2023/12/28 02:40:41;;;;;;;4.35;2.70;;;10.50;99.90;;;;;;6167772;23;20055;-34
2023/12/28 02:43:08;;;;;;;4.13;2.58;;;10.50;99.90;;;;;;6166807;23;20028;-36
2023/12/28 02:45:34;;;;;;;3.15;2.10;;;10.50;99.90;;;;;;6168171;23;20012;-36
2023/12/28 02:48:00;;;;;;;2.88;2.20;;;10.50;99.90;;;;;;6167318;23;20013;-36
2023/12/28 02:50:25;;;;;;;2.85;2.17;;;10.50;99.90;;;;;;6166924;23;20027;-36
2023/12/28 02:52:51;;;;;;;2.10;1.90;;;10.50;99.90;;;;;;6168346;23;20151;-36
2023/12/28 02:55:17;;;;;;;2.40;2.10;;;10.50;99.90;;;;;;6167137;23;20005;-36
2023/12/28 02:57:44;;;;;;;2.83;1.77;;;10.50;99.90;;;;;;6167104;23;20084;-36
2023/12/28 03:00:10;;;;;;;4.63;2.10;;;10.50;99.90;;;;;;6167627;23;20009;-35
2023/12/28 03:02:37;;;;;;;4.40;2.47;;;10.50;99.90;;;;;;6168130;23;20024;-36
2023/12/28 03:05:05;;;;;;;4.50;2.42;;;10.50;99.90;;;;;;6165206;23;20603;-35
2023/12/28 03:07:31;;;;;;;1.90;1.80;;;10.50;99.90;;;;;;6165850;23;20760;-35
2023/12/28 03:09:57;;;;;;;2.90;1.90;;;10.50;99.90;;;;;;6165237;23;20057;-35
2023/12/28 03:12:22;;;;;;;4.18;2.05;;;10.50;99.90;;;;;;6165941;23;20059;-36
2023/12/28 03:14:48;;;;;;;2.85;1.90;;;10.50;99.90;;;;;;6169612;23;20000;-36
2023/12/28 03:17:14;;;;;;;4.95;2.15;;;10.50;99.90;;;;;;6168277;23;20087;-36
2023/12/28 03:19:39;;;;;;;2.55;1.92;;;10.50;99.90;;;;;;6169992;23;20040;-35
2023/12/28 03:22:05;;;;;;;3.05;1.90;;;10.50;99.90;;;;;;6169407;23;20813;-35
2023/12/28 03:24:31;;;;;;;4.57;2.08;;;10.50;99.90;;;;;;6170078;23;20016;-35
2023/12/28 03:26:56;;;;;;;3.33;1.60;;;10.50;99.90;;;;;;6169265;23;20036;-35
2023/12/28 03:29:22;;;;;;;3.40;1.80;;;10.50;99.90;;;;;;6169650;23;20031;-34
2023/12/28 03:31:48;;;;;;;4.53;2.05;;;10.50;99.90;;;;;;6170512;23;20060;-35
2023/12/28 03:34:13;;;;;;;2.63;1.90;;;10.50;99.90;;;;;;6167690;23;20025;-35
2023/12/28 03:36:39;;;;;;;3.20;2.10;;;10.50;99.90;;;;;;6169915;23;20451;-35
2023/12/28 03:39:05;;;;;;;3.75;2.03;;;10.60;99.90;;;;;;6169124;23;20558;-36
2023/12/28 03:41:33;;;;;;;3.58;1.70;;;10.60;99.90;;;;;;6168998;23;20017;-36
2023/12/28 03:43:58;;;;;;;4.03;2.00;;;10.70;99.90;;;;;;6169682;23;20005;-36
2023/12/28 03:46:24;;;;;;;5.38;2.10;;;10.80;99.90;;;;;;6168566;23;20009;-35
2023/12/28 03:48:49;;;;;;;6.47;2.30;;;10.80;99.90;;;;;;6169570;23;20694;-36
2023/12/28 03:51:15;;;;;;;6.00;2.35;;;10.90;99.90;;;;;;6167558;23;20719;-35
2023/12/28 03:53:42;;;;;;;5.35;2.03;;;10.90;99.90;;;;;;6167880;23;20005;-36
2023/12/28 03:56:07;;;;;;;4.55;1.95;;;10.90;99.90;;;;;;6168497;23;20071;-35
2023/12/28 03:58:33;;;;;;;5.72;2.13;;;11.00;99.90;;;;;;6168715;23;20013;-36
2023/12/28 04:00:59;;;;;;;6.10;2.05;;;11.00;99.90;;;;;;6167746;23;20021;-37
2023/12/28 04:03:24;;;;;;;3.92;1.90;;;11.00;99.90;;;;;;6167244;23;20015;-36
2023/12/28 04:05:52;;;;;;;4.65;1.67;;;11.00;99.90;;;;;;6168974;23;20076;-36
2023/12/28 04:08:17;;;;;;;6.25;1.92;;;11.00;99.90;;;;;;6166874;23;20088;-36
2023/12/28 04:10:43;;;;;;;4.75;1.85;;;11.00;99.90;;;;;;6168770;23;20104;-36
2023/12/28 04:13:08;;;;;;;5.00;2.08;;;11.10;99.90;;;;;;6168023;23;20088;-36
2023/12/28 04:15:34;;;;;;;4.28;2.00;;;11.10;99.90;;;;;;6168844;23;20044;-37
2023/12/28 04:17:59;;;;;;;7.63;1.92;;;11.10;99.90;;;;;;6168840;23;20009;-36
2023/12/28 04:20:28;;;;;;;3.95;2.05;;;11.10;99.90;;;;;;6169026;23;20017;-37
2023/12/28 04:22:53;;;;;;;6.75;2.85;;;11.10;99.90;;;;;;6169554;23;20032;-37
2023/12/28 04:25:19;;;;;;;7.65;2.30;;;11.10;99.90;;;;;;6169169;23;20036;-36
2023/12/28 04:27:45;;;;;;;5.88;1.98;;;11.10;99.90;;;;;;6170175;23;20478;-35
2023/12/28 04:30:13;;;;;;;4.38;1.83;;;11.10;99.90;;;;;;6168310;23;20096;-36
2023/12/28 04:32:39;;;;;;;7.30;2.15;;;11.10;99.90;;;;;;6169819;23;20013;-36
2023/12/28 04:35:05;;;;;;;2.38;1.63;;;11.10;99.90;;;;;;6168659;23;20931;-37
2023/12/28 04:37:32;;;;;;;2.70;1.55;;;11.00;99.90;;;;;;6167317;23;20013;-36
2023/12/28 04:39:58;;;;;;;2.97;1.40;;;11.00;99.90;;;;;;6169496;23;20104;-37
2023/12/28 04:42:24;;;;;;;5.63;1.98;;;11.00;99.90;;;;;;6169559;23;20151;-37
2023/12/28 04:44:49;;;;;;;9.73;1.88;;;11.00;99.90;;;;;;6169017;23;20001;-37
2023/12/28 04:47:15;;;;;;;5.40;1.80;;;11.00;99.90;;;;;;6167980;23;20092;-37
2023/12/28 04:49:40;;;;;;;5.53;1.80;;;11.00;99.90;;;;;;6168856;23;20029;-37
2023/12/28 04:52:06;;;;;;;6.25;1.85;;;11.00;99.90;;;;;;6168649;23;20078;-37
2023/12/28 04:54:33;;;;;;;4.63;1.98;;;11.00;99.90;;;;;;6169643;23;20037;-35
2023/12/28 04:56:59;;;;;;;7.22;2.00;;;11.00;99.90;;;;;;6168580;23;20509;-35
2023/12/28 04:59:25;;;;;;;5.15;1.67;;;11.00;99.90;;;;;;6168573;23;20008;-35
2023/12/28 05:01:50;;;;;;;4.85;1.73;;;11.10;99.90;;;;;;6168140;23;20719;-35
2023/12/28 05:04:16;;;;;;;3.53;1.83;;;11.10;99.90;;;;;;6167896;23;20080;-36
2023/12/28 05:06:42;;;;;;;7.30;2.15;;;11.10;99.90;;;;;;6168988;23;20033;-36
2023/12/28 05:09:07;;;;;;;7.43;1.92;;;11.20;99.90;;;;;;6168093;23;20001;-36
2023/12/28 05:11:33;;;;;;;8.05;2.03;;;11.20;99.90;;;;;;6167661;23;20012;-35
2023/12/28 05:13:58;;;;;;;7.82;1.92;;;11.20;99.90;;;;;;6168883;23;20005;-35
2023/12/28 05:16:24;;;;;;;9.15;2.15;;;11.20;99.90;;;;;;6168270;23;20478;-35
2023/12/28 05:18:49;;;;;;;6.38;2.00;;;11.30;99.90;;;;;;6168225;23;20005;-35
2023/12/28 05:21:18;;;;;;;7.32;2.03;;;11.30;99.90;;;;;;6167990;23;20027;-36
2023/12/28 05:23:44;;;;;;;8.77;1.73;;;11.30;99.90;;;;;;6169825;23;20005;-35
2023/12/28 05:26:09;;;;;;;5.03;2.15;;;11.30;99.90;;;;;;6168295;23;20384;-36
2023/12/28 05:28:35;;;;;;;4.78;1.63;;;11.30;99.90;;;;;;6169431;23;20005;-37
2023/12/28 05:31:00;;;;;;;5.78;1.80;;;11.30;99.90;;;;;;6166755;23;20075;-36
2023/12/28 05:33:29;;;;;;;5.70;1.88;;;11.40;99.90;;;;;;6166169;23;20033;-36
2023/12/28 05:35:55;;;;;;;6.55;1.85;;;11.40;99.90;;;;;;6166828;23;20012;-37
2023/12/28 05:38:20;;;;;;;8.98;2.22;;;11.40;99.90;;;;;;6166625;23;20032;-36
2023/12/28 05:40:46;;;;;;;7.93;2.47;;;11.40;99.90;;;;;;6167990;23;20020;-38
2023/12/28 05:43:11;;;;;;;6.22;2.42;;;11.40;99.90;;;;;;6166847;23;20033;-37
2023/12/28 05:45:37;;;;;;;4.85;1.90;;;11.40;99.90;;;;;;6168469;23;20020;-36
2023/12/28 05:48:03;;;;;;;8.60;2.00;;;11.50;99.90;;;;;;6167626;23;20013;-37
2023/12/28 05:50:28;;;;;;;4.90;1.80;;;11.40;99.90;;;;;;6167273;23;20005;-36
2023/12/28 05:52:54;;;;;;;8.32;2.30;;;11.50;99.90;;;;;;6168065;23;20012;-36
2023/12/28 05:55:20;;;;;;;7.72;2.00;;;11.50;99.90;;;;;;6168206;23;20005;-36
2023/12/28 05:57:49;;;;;;;7.45;1.98;;;11.50;99.90;;;;;;6168709;23;20005;-36
2023/12/28 06:00:14;;;;;;;4.68;1.80;;;11.50;99.90;;;;;;6166318;23;20024;-35
2023/12/28 06:02:41;;;;;;;7.63;1.95;;;11.50;99.90;;;;;;6168199;23;20021;-36
2023/12/28 06:05:07;;;;;;;11.10;2.42;;;11.50;99.90;;;;;;6168513;23;20155;-34
2023/12/28 06:07:34;;;;;;;6.43;2.03;;;11.50;99.90;;;;;;6167514;23;20009;-36
2023/12/28 06:09:59;;;;;;;8.35;1.83;;;11.60;99.90;;;;;;6169030;23;19997;-37
2023/12/28 06:12:25;;;;;;;11.50;2.35;;;11.60;99.90;;;;;;6168222;23;20015;-37
2023/12/28 06:14:51;;;;;;;7.10;2.15;;;11.60;99.90;;;;;;6168167;23;20009;-35
2023/12/28 06:17:19;;;;;;;7.22;1.98;;;11.60;99.90;;;;;;6167837;23;20079;-37
2023/12/28 06:19:45;;;;;;;6.03;1.73;;;11.60;99.90;;;;;;6167786;23;20028;-35
2023/12/28 06:22:11;;;;;;;8.10;2.30;;;11.60;99.90;;;;;;6167039;23;20048;-37
2023/12/28 06:24:40;;;;;;;5.68;1.98;;;11.60;99.90;;;;;;6168867;23;20088;-35
2023/12/28 06:27:06;;;;;;;8.55;2.30;;;11.60;99.90;;;;;;6168763;23;20024;-36
2023/12/28 06:29:32;;;;;;;7.28;2.40;;;11.60;99.90;;;;;;6167844;23;20025;-36
2023/12/28 06:31:57;;;;;;;9.00;2.65;;;11.70;99.90;;;;;;6168309;23;20338;-36
2023/12/28 06:34:23;;;;;;;6.20;1.90;;;11.70;99.90;;;;;;6168084;23;20754;-36
2023/12/28 06:36:48;;;;;;;7.80;2.03;;;11.70;99.90;;;;;;6168180;23;20009;-37
2023/12/28 06:39:14;;;;;;;5.55;1.75;;;11.70;99.90;;;;;;6168854;23;20032;-35
2023/12/28 06:41:40;;;;;;;12.23;2.67;;;11.60;99.90;;;;;;6168968;23;20098;-36
2023/12/28 06:44:05;;;;;;;7.32;2.20;;;11.60;99.90;;;;;;6168942;23;20055;-36
2023/12/28 06:46:31;;;;;;;7.95;2.20;;;11.70;99.90;;;;;;6168711;23;20063;-38
2023/12/28 06:48:58;;;;;;;5.80;1.92;;;11.70;99.90;;;;;;6169170;23;20079;-37
2023/12/28 06:51:25;;;;;;;5.25;1.73;;;11.70;99.90;;;;;;6167923;23;20384;-36
2023/12/28 06:53:51;;;;;;;7.85;1.83;;;11.60;99.90;;;;;;6169345;23;20007;-36
2023/12/28 06:56:16;;;;;;;9.48;2.40;;;11.70;99.90;;;;;;6168868;23;20108;-36
2023/12/28 06:58:42;;;;;;;7.30;2.17;;;11.70;99.90;;;;;;6169518;23;20417;-36
2023/12/28 07:01:08;;;;;;;10.95;2.40;;;11.60;99.90;;;;;;6167544;23;20719;-36
2023/12/28 07:03:34;;;;;;;9.20;2.85;;;11.70;99.90;;;;;;6169451;23;20487;-38
2023/12/28 07:06:00;;;;;;;10.82;2.65;;;11.70;99.90;;;;;;6169205;23;20036;-36
2023/12/28 07:08:25;;;;;;;7.60;2.22;;;11.70;99.90;;;;;;6166528;23;20707;-37
2023/12/28 07:10:51;;;;;;;10.40;2.65;;;11.70;99.90;;;;;;6167714;23;20415;-37
2023/12/28 07:13:17;;;;;;;8.70;2.50;;;11.70;99.90;;;;;;6167287;23;20008;-37
2023/12/28 07:15:42;;;;;;;9.27;2.20;;;11.70;99.90;;;;;;6169167;23;20328;-37
2023/12/28 07:18:08;;;;;;;11.70;2.25;;;11.70;99.90;;;;;;6167008;23;20001;-36
2023/12/28 07:20:34;;;;;;;8.30;2.05;;;11.70;99.90;;;;;;6167902;23;20024;-37
2023/12/28 07:22:59;;;;;;;10.63;2.35;;;11.70;99.90;;;;;;6167530;23;20013;-37
2023/12/28 07:25:25;;;;;;;14.40;3.15;;;11.70;99.90;;;;;;6167098;23;20011;-38
2023/12/28 07:27:51;;;;;;;11.65;2.60;;;11.70;99.90;;;;;;6168044;23;20075;-37
2023/12/28 07:30:17;;;;;;;9.38;2.35;;;11.70;99.90;;;;;;6166488;23;20075;-38
2023/12/28 07:32:43;;;;;;;14.52;2.83;;;11.70;99.90;;;;;;6167383;23;20001;-37
2023/12/28 07:35:09;;;;;;;8.13;2.47;;;11.60;99.90;;;;;;6166726;23;20023;-37
2023/12/28 07:37:35;;;;;;;8.70;2.13;;;11.70;99.90;;;;;;6167453;23;20005;-36
2023/12/28 07:40:03;;;;;;;8.40;2.35;;;11.60;99.90;;;;;;6166142;23;20451;-36
2023/12/28 07:42:28;;;;;;;7.68;2.00;;;11.70;99.90;;;;;;6167666;23;20088;-41
2023/12/28 07:44:56;;;;;;;11.05;2.75;;;11.70;99.90;;;;;;6167815;23;20091;-36
2023/12/28 07:47:22;;;;;;;10.50;2.60;;;11.60;99.90;;;;;;6167263;23;20013;-37
2023/12/28 07:49:50;;;;;;;12.60;2.53;;;11.60;99.90;;;;;;6166978;23;20063;-36
2023/12/28 07:52:16;;;;;;;9.02;2.20;;;11.60;99.90;;;;;;6166230;23;20667;-36
2023/12/28 07:54:44;;;;;;;9.43;2.97;;;11.60;99.90;;;;;;6166072;23;20040;-37
2023/12/28 07:57:10;;;;;;;10.43;2.50;;;11.70;99.90;;;;;;6165260;23;20013;-37
2023/12/28 07:59:36;;;;;;;9.05;2.35;;;11.70;99.90;;;;;;6169595;23;20024;-35
2023/12/28 08:02:01;;;;;;;14.75;3.13;;;11.70;99.90;;;;;;6169052;23;20335;-36
2023/12/28 08:04:27;;;;;;;6.05;2.10;;;11.70;99.90;;;;;;6169781;23;20001;-37
2023/12/28 08:06:53;;;;;;;8.85;2.10;;;11.70;99.90;;;;;;6169237;23;20001;-38
2023/12/28 08:09:18;;;;;;;12.88;3.05;;;11.70;99.90;;;;;;6169494;23;20012;-36
2023/12/28 08:11:44;;;;;;;9.05;2.08;;;11.70;99.90;;;;;;6170411;23;20008;-37
2023/12/28 08:14:09;;;;;;;13.93;2.80;;;11.70;99.90;;;;;;6168863;23;20080;-37
2023/12/28 08:16:35;;;;;;;9.63;3.03;;;11.80;99.90;;;;;;6169363;23;20036;-37
2023/12/28 08:19:02;;;;;;;14.82;2.63;;;11.80;99.90;;;;;;6168224;23;20005;-37
2023/12/28 08:21:27;;;;;;;8.85;2.25;;;11.80;99.90;;;;;;6167853;23;20142;-38
2023/12/28 08:23:53;;;;;;;12.90;2.60;;;11.80;99.90;;;;;;6169364;23;20793;-38
2023/12/28 08:26:19;;;;;;;13.07;2.25;;;11.80;99.90;;;;;;6168913;23;20005;-38
2023/12/28 08:28:45;;;;;;;7.82;2.33;;;11.80;99.90;;;;;;6169808;23;20012;-37
2023/12/28 08:31:12;;;;;;;11.45;2.42;;;11.80;99.90;;;;;;6170323;23;20092;-38
2023/12/28 08:33:42;;;;;;;9.82;2.28;;;11.80;99.90;;;;;;6169588;23;20035;-37
2023/12/28 08:36:08;;;;;;;8.20;2.08;;;11.80;99.90;;;;;;6168340;23;20009;-38
2023/12/28 08:38:34;;;;;;;10.23;2.05;;;11.90;99.90;;;;;;6168560;23;20005;-37
2023/12/28 08:41:00;;;;;;;11.35;3.00;;;11.90;99.90;;;;;;6167662;23;20467;-37
2023/12/28 08:43:26;;;;;;;11.00;3.20;;;11.90;99.90;;;;;;6168118;23;20013;-38
2023/12/28 08:45:54;;;;;;;6.78;2.00;;;11.90;99.90;;;;;;6167328;23;20013;-42
2023/12/28 08:48:20;;;;;;;12.05;2.50;;;11.90;99.90;;;;;;6168416;23;20005;-37
2023/12/28 08:50:48;;;;;;;6.75;2.38;;;11.90;99.90;;;;;;6169422;23;20005;-38
2023/12/28 08:53:14;;;;;;;14.93;2.95;;;11.90;99.90;;;;;;6168583;23;20349;-37
2023/12/28 08:55:43;;;;;;;11.73;2.85;;;11.90;99.90;;;;;;6168872;23;20009;-37
2023/12/28 08:58:12;;;;;;;11.55;2.63;;;11.90;99.90;;;;;;6167186;23;20009;-37
2023/12/28 09:00:38;;;;;;;6.65;1.95;;;11.90;99.90;;;;;;6168254;23;20013;-40
2023/12/28 09:03:04;;;;;;;11.73;2.58;;;11.90;99.90;;;;;;6168319;23;20005;-36
2023/12/28 09:05:32;;;;;;;9.40;2.08;;;11.90;99.90;;;;;;6169313;23;20034;-36
2023/12/28 09:08:00;;;;;;;8.75;2.17;;;11.90;99.90;;;;;;6169156;23;20012;-38
2023/12/28 09:10:26;;;;;;;7.40;2.90;;;11.90;99.90;;;;;;6167802;23;20055;-38
2023/12/28 09:12:52;;;;;;;10.65;2.20;;;11.90;99.90;;;;;;6169152;23;20013;-38
2023/12/28 09:15:17;;;;;;;9.18;2.08;;;11.90;99.90;;;;;;6168480;23;20464;-37
2023/12/28 09:17:43;;;;;;;14.88;3.10;;;11.90;99.90;;;;;;6169128;23;20080;-37
2023/12/28 09:20:09;;;;;;;10.80;2.72;;;11.90;99.90;;;;;;6167723;23;20059;-37
2023/12/28 09:22:37;;;;;;;11.13;3.15;;;11.90;99.90;;;;;;6168415;23;20040;-37
2023/12/28 09:25:03;;;;;;;7.20;2.15;;;11.90;99.90;;;;;;6167291;23;20028;-36
2023/12/28 09:27:29;;;;;;;11.43;2.28;;;11.90;99.90;;;;;;6168966;23;20012;-36
2023/12/28 09:29:55;;;;;;;9.05;2.20;;;12.00;99.90;;;;;;6168650;23;20001;-36
2023/12/28 09:32:20;;;;;;;7.75;2.17;;;12.00;99.90;;;;;;6168053;23;20031;-37
2023/12/28 09:34:46;;;;;;;8.98;2.30;;;12.00;99.90;;;;;;6169143;23;20013;-37
2023/12/28 09:37:12;;;;;;;11.65;3.22;;;12.00;99.90;;;;;;6168317;23;20603;-37
2023/12/28 09:39:37;;;;;;;9.10;2.88;;;12.10;99.90;;;;;;6167737;23;20052;-37
2023/12/28 09:42:09;;;;;;;13.15;2.72;;;12.10;99.90;;;;;;6168980;23;20020;-37
2023/12/28 09:44:38;;;;;;;10.38;2.92;;;12.10;99.90;;;;;;6168928;23;20016;-37
2023/12/28 09:47:06;;;;;;;7.93;2.25;;;12.10;99.90;;;;;;6168267;23;20009;-36
2023/12/28 09:49:33;;;;;;;8.98;2.35;;;12.10;99.90;;;;;;6169453;23;20001;-37
2023/12/28 09:52:00;;;;;;;12.82;3.13;;;12.20;99.90;;;;;;6168578;23;20016;-37
2023/12/28 09:54:26;;;;;;;10.15;2.40;;;12.20;99.90;;;;;;6167821;23;20000;-38
2023/12/28 09:56:52;;;;;;;15.75;3.45;;;12.20;99.90;;;;;;6167355;23;20036;-37
2023/12/28 09:59:19;;;;;;;11.02;2.25;;;12.20;99.90;;;;;;6167644;23;20084;-37
2023/12/28 10:01:47;;;;;;;10.35;2.50;;;12.20;99.90;;;;;;6168039;23;20021;-36
2023/12/28 10:04:14;;;;;;;7.75;2.45;;;12.30;99.90;;;;;;6167854;23;19997;-37
2023/12/28 10:06:40;;;;;;;9.00;2.55;;;12.30;99.90;;;;;;6168375;23;20019;-36
2023/12/28 10:09:07;;;;;;;10.02;2.30;;;12.30;99.90;;;;;;6169549;23;20005;-46
2023/12/28 10:11:33;;;;;;;9.20;2.33;;;12.30;99.90;;;;;;6169029;23;20005;-37
2023/12/28 10:13:59;;;;;;;10.48;2.50;;;12.30;99.90;;;;;;6168793;23;20008;-36
2023/12/28 10:16:25;;;;;;;8.88;2.10;;;12.30;99.90;;;;;;6169193;23;20009;-37
2023/12/28 10:18:54;;;;;;;11.52;2.67;;;12.30;99.90;;;;;;6169118;23;20047;-36
2023/12/28 10:21:23;;;;;;;11.35;2.00;;;12.30;99.90;;;;;;6168549;23;20100;-36
2023/12/28 10:23:49;;;;;;;10.45;2.33;;;12.30;99.90;;;;;;6169628;23;20005;-38
2023/12/28 10:26:18;;;;;;;8.70;2.22;;;12.30;99.90;;;;;;6169158;23;20035;-37
2023/12/28 10:28:44;;;;;;;8.48;2.20;;;12.30;99.90;;;;;;6169004;23;20001;-37
2023/12/28 10:31:10;;;;;;;14.23;3.25;;;12.30;99.90;;;;;;6168402;23;20008;-37
2023/12/28 10:33:36;;;;;;;10.18;2.83;;;12.30;99.90;;;;;;6167835;23;20527;-37
2023/12/28 10:36:06;;;;;;;12.30;2.38;;;12.30;99.90;;;;;;6168461;23;20005;-37
2023/12/28 10:38:36;;;;;;;8.98;2.67;;;12.30;99.90;;;;;;6167923;23;20032;-37
2023/12/28 10:41:13;;;;;;;11.70;3.20;;;12.40;99.90;;;;;;6168333;23;20021;-37
2023/12/28 10:43:54;;;;;;;10.65;2.42;;;12.40;99.90;;;;;;6167875;23;20009;-37
2023/12/28 10:46:29;;;;;;;11.70;2.33;;;12.40;99.90;;;;;;6167660;23;20005;-37
2023/12/28 10:49:12;;;;;;;10.55;2.45;;;12.40;99.90;;;;;;6168762;23;20017;-39
2023/12/28 10:51:43;;;;;;;15.63;3.33;;;12.40;99.90;;;;;;6169204;23;20009;-37
2023/12/28 10:54:14;;;;;;;8.32;2.10;;;12.40;99.90;;;;;;6167681;23;20095;-36
2023/12/28 10:56:50;;;;;;;12.45;2.58;;;12.50;99.90;;;;;;6168210;23;20029;-37
2023/12/28 10:59:39;;;;;;;7.45;2.13;;;12.50;99.90;;;;;;6168023;23;20016;-38
2023/12/28 11:02:06;;;;;;;12.63;2.33;;;12.50;99.90;;;;;;6167697;23;20104;-36
2023/12/28 11:04:35;;;;;;;9.80;2.53;;;12.50;99.90;;;;;;6166853;23;20029;-37
2023/12/28 11:07:02;;;;;;;13.07;2.60;;;12.50;99.90;;;;;;6168131;23;20087;-37
2023/12/28 11:09:31;;;;;;;11.93;2.90;;;12.50;99.90;;;;;;6167177;23;20008;-37
2023/12/28 11:12:00;;;;;;;11.77;2.65;;;12.50;99.90;;;;;;6168517;23;20061;-38
2023/12/28 11:14:27;;;;;;;15.95;3.35;;;12.50;99.90;;;;;;6168484;23;20032;-38
2023/12/28 11:16:55;;;;;;;11.20;2.40;;;12.50;99.90;;;;;;6167792;23;20150;-39
2023/12/28 11:19:22;;;;;;;10.93;2.67;;;12.50;99.90;;;;;;6168251;23;20016;-37
2023/12/28 11:21:52;;;;;;;13.95;3.17;;;12.50;99.90;;;;;;6141894;23;20098;-38
2023/12/28 11:24:19;;;;;;;12.38;2.90;;;12.50;99.90;;;;;;6167786;23;20136;-37
2023/12/28 11:26:51;;;;;;;11.25;2.70;;;12.50;99.90;;;;;;6168196;23;20005;-38
2023/12/28 11:29:19;;;;;;;10.82;3.08;;;12.50;99.90;;;;;;6168306;23;20079;-37
2023/12/28 11:31:54;;;;;;;16.30;2.70;;;12.50;99.90;;;;;;6167514;23;20009;-38
2023/12/28 11:34:28;;;;;;;11.13;2.95;;;12.40;99.90;;;;;;6169664;23;20036;-38
2023/12/28 11:36:56;;;;;;;9.15;2.20;;;12.50;99.90;;;;;;6170916;23;20027;-40
2023/12/28 11:39:35;;;;;;;9.93;2.47;;;12.50;99.90;;;;;;6169563;23;20009;-38
2023/12/28 11:42:07;;;;;;;8.77;2.05;;;12.60;99.90;;;;;;6168785;23;20090;-38
2023/12/28 11:44:42;;;;;;;9.43;2.75;;;12.60;99.90;;;;;;6169682;23;20836;-38
2023/12/28 11:47:25;;;;;;;13.27;3.28;;;12.60;99.90;;;;;;6171255;23;20012;-37
2023/12/28 11:49:51;;;;;;;11.68;2.95;;;12.60;99.90;;;;;;6170104;23;20028;-37
2023/12/28 11:52:28;;;;;;;10.68;2.65;;;12.60;99.90;;;;;;6169177;23;20005;-38
2023/12/28 11:54:55;;;;;;;9.75;2.67;;;12.60;99.90;;;;;;6170731;23;20013;-37
2023/12/28 11:57:21;;;;;;;7.97;2.60;;;12.60;99.90;;;;;;6169477;23;20011;-38
2023/12/28 11:59:53;;;;;;;7.75;2.17;;;12.60;99.90;;;;;;6169674;23;20077;-37
2023/12/28 12:02:20;;;;;;;8.40;2.05;;;12.60;99.90;;;;;;6169391;23;20017;-38
2023/12/28 12:04:45;;;;;;;11.05;3.00;;;12.60;99.90;;;;;;6170200;23;20012;-37
2023/12/28 12:07:11;;;;;;;10.32;2.38;;;12.50;99.90;;;;;;6169999;23;20009;-38
2023/12/28 12:09:37;;;;;;;12.38;2.15;;;12.50;99.90;;;;;;6171030;23;20031;-37
2023/12/28 12:12:03;;;;;;;18.85;2.90;;;12.50;99.90;;;;;;6169710;23;20059;-36
2023/12/28 12:14:34;;;;;;;11.25;2.75;;;12.50;99.90;;;;;;6168953;23;20005;-43
2023/12/28 12:17:00;;;;;;;15.57;2.90;;;12.50;99.90;;;;;;6169652;23;20012;-37
2023/12/28 12:19:26;;;;;;;8.65;2.63;;;12.50;99.90;;;;;;6170639;23;20001;-37
2023/12/28 12:21:53;;;;;;;15.27;2.20;;;12.50;99.90;;;;;;6169498;23;20075;-38
2023/12/28 12:24:19;;;;;;;13.10;2.70;;;12.50;99.90;;;;;;6169108;23;20033;-37
2023/12/28 12:26:51;;;;;;;11.32;3.10;;;12.50;99.90;;;;;;6168905;23;20001;-38
2023/12/28 12:29:17;;;;;;;9.70;2.75;;;12.50;99.90;;;;;;6170043;23;20009;-37
2023/12/28 12:31:46;;;;;;;9.55;1.95;;;12.50;99.90;;;;;;6169957;23;20005;-38
2023/12/28 12:34:15;;;;;;;11.25;2.80;;;12.60;99.90;;;;;;6169282;23;20005;-38
2023/12/28 12:36:41;;;;;;;11.27;3.03;;;12.60;99.90;;;;;;6169451;23;20069;-38
2023/12/28 12:39:08;;;;;;;7.30;2.30;;;12.60;99.90;;;;;;6169415;23;20005;-38
2023/12/28 12:41:34;;;;;;;10.93;2.80;;;12.60;99.90;;;;;;6169312;23;20017;-37